createdAt,value
2022-09-06T00:00:26.544Z,21.28
2022-09-06T00:02:57.593Z,21.27
2022-09-06T00:05:24.567Z,21.25
2022-09-06T00:07:51.652Z,21.24
2022-09-06T00:10:18.448Z,21.20
2022-09-06T00:12:45.853Z,21.19
2022-09-06T00:15:12.904Z,21.15
2022-09-06T00:17:39.753Z,21.15
2022-09-06T00:20:09.299Z,21.15
2022-09-06T00:22:37.620Z,21.17
2022-09-06T00:25:06.477Z,21.17
2022-09-06T00:27:34.941Z,21.16
2022-09-06T00:30:02.053Z,21.12
2022-09-06T00:32:28.820Z,21.12
2022-09-06T00:34:55.657Z,21.10
2022-09-06T00:37:22.644Z,21.09
2022-09-06T00:39:49.516Z,21.06
2022-09-06T00:42:16.333Z,21.05
2022-09-06T00:44:43.413Z,21.06
2022-09-06T00:47:10.536Z,21.05
2022-09-06T00:49:45.040Z,21.00
2022-09-06T00:52:16.825Z,20.99
2022-09-06T00:54:44.441Z,20.96
2022-09-06T00:57:13.314Z,20.96
2022-09-06T00:59:42.655Z,20.95
2022-09-06T01:02:09.956Z,20.93
2022-09-06T01:04:41.847Z,20.91
2022-09-06T01:07:40.115Z,20.92
2022-09-06T01:10:09.927Z,20.92
2022-09-06T01:13:17.628Z,20.86
2022-09-06T01:16:39.916Z,20.82
2022-09-06T01:19:50.440Z,20.81
2022-09-06T01:22:48.012Z,20.80
2022-09-06T01:25:55.616Z,20.82
2022-09-06T01:28:30.176Z,20.81
2022-09-06T01:31:38.083Z,20.81
2022-09-06T01:34:07.695Z,20.79
2022-09-06T01:37:11.133Z,20.75
2022-09-06T01:39:41.691Z,20.72
2022-09-06T01:42:29.810Z,20.70
2022-09-06T01:45:02.782Z,20.66
2022-09-06T01:47:35.668Z,20.65
2022-09-06T01:50:41.625Z,20.60
2022-09-06T01:53:20.533Z,20.55
2022-09-06T01:56:07.655Z,20.59
2022-09-06T01:59:12.917Z,20.63
2022-09-06T02:01:48.627Z,20.65
2022-09-06T02:04:35.965Z,20.58
2022-09-06T02:07:24.825Z,20.54
2022-09-06T02:10:03.011Z,20.53
2022-09-06T02:12:34.072Z,20.54
2022-09-06T02:15:15.958Z,20.57
2022-09-06T02:18:00.419Z,20.59
2022-09-06T02:20:34.580Z,20.61
2022-09-06T02:23:08.377Z,20.59
2022-09-06T02:25:42.490Z,20.52
2022-09-06T02:28:10.892Z,20.48
2022-09-06T02:30:48.534Z,20.44
2022-09-06T02:33:30.692Z,20.42
2022-09-06T02:36:06.440Z,20.39
2022-09-06T02:38:37.773Z,20.38
2022-09-06T02:41:06.356Z,20.35
2022-09-06T02:43:33.498Z,20.34
2022-09-06T02:46:00.386Z,20.32
2022-09-06T02:48:27.476Z,20.33
2022-09-06T02:50:57.520Z,20.30
2022-09-06T02:53:24.335Z,20.24
2022-09-06T02:55:51.523Z,20.19
2022-09-06T02:58:18.369Z,20.17
2022-09-06T03:00:45.195Z,20.12
2022-09-06T03:03:12.413Z,20.09
2022-09-06T03:05:39.398Z,20.09
2022-09-06T03:08:06.318Z,20.05
2022-09-06T03:10:33.546Z,20.06
2022-09-06T03:13:00.444Z,20.01
2022-09-06T03:15:27.271Z,20.01
2022-09-06T03:17:59.463Z,19.97
2022-09-06T03:20:26.757Z,19.91
2022-09-06T03:22:53.569Z,19.89
2022-09-06T03:25:21.778Z,19.87
2022-09-06T03:27:48.601Z,19.83
2022-09-06T03:30:15.511Z,19.82
2022-09-06T03:32:42.674Z,19.81
2022-09-06T03:35:10.214Z,19.83
2022-09-06T03:37:37.478Z,19.76
2022-09-06T03:40:06.301Z,19.74
2022-09-06T03:42:33.231Z,19.75
2022-09-06T03:45:00.123Z,19.77
2022-09-06T03:47:27.138Z,19.76
2022-09-06T03:49:54.029Z,19.71
2022-09-06T03:52:20.805Z,19.62
2022-09-06T03:54:47.825Z,19.59
2022-09-06T03:57:14.691Z,19.58
2022-09-06T03:59:41.558Z,19.53
2022-09-06T04:02:08.682Z,19.48
2022-09-06T04:04:35.458Z,19.47
2022-09-06T04:07:02.208Z,19.49
2022-09-06T04:09:29.281Z,19.45
2022-09-06T04:11:56.090Z,19.48
2022-09-06T04:14:23.065Z,19.50
2022-09-06T04:16:50.800Z,19.46
2022-09-06T04:19:17.617Z,19.41
2022-09-06T04:21:44.490Z,19.32
2022-09-06T04:24:11.527Z,19.23
2022-09-06T04:26:38.633Z,19.22
2022-09-06T04:29:05.651Z,19.23
2022-09-06T04:31:32.807Z,19.26
2022-09-06T04:33:59.665Z,19.30
2022-09-06T04:36:26.612Z,19.28
2022-09-06T04:38:54.733Z,19.24
2022-09-06T04:41:21.959Z,19.16
2022-09-06T04:43:49.443Z,19.08
2022-09-06T04:46:26.954Z,19.07
2022-09-06T04:48:55.996Z,19.08
2022-09-06T04:51:25.165Z,19.06
2022-09-06T04:53:52.646Z,19.03
2022-09-06T04:56:23.004Z,19.03
2022-09-06T04:58:52.302Z,19.02
2022-09-06T05:01:20.551Z,18.98
2022-09-06T05:03:47.736Z,19.01
2022-09-06T05:06:24.812Z,19.01
2022-09-06T05:08:52.458Z,18.99
2022-09-06T05:11:19.897Z,18.99
2022-09-06T05:13:47.647Z,19.01
2022-09-06T05:16:14.897Z,19.04
2022-09-06T05:18:42.068Z,19.03
2022-09-06T05:21:08.928Z,19.10
2022-09-06T05:23:36.649Z,19.14
2022-09-06T05:26:05.080Z,19.10
2022-09-06T05:28:32.188Z,19.06
2022-09-06T05:31:10.992Z,19.04
2022-09-06T05:33:38.459Z,19.01
2022-09-06T05:36:06.575Z,19.01
2022-09-06T05:38:33.909Z,19.03
2022-09-06T05:41:01.031Z,19.07
2022-09-06T05:43:27.837Z,19.07
2022-09-06T05:45:54.776Z,19.09
2022-09-06T05:48:21.913Z,19.07
2022-09-06T05:51:00.086Z,19.08
2022-09-06T05:53:27.031Z,19.09
2022-09-06T05:55:53.821Z,19.16
2022-09-06T05:58:20.586Z,19.21
2022-09-06T06:00:48.049Z,19.24
2022-09-06T06:03:14.938Z,19.22
2022-09-06T06:05:47.655Z,19.22
2022-09-06T06:08:14.874Z,19.19
2022-09-06T06:10:41.722Z,19.17
2022-09-06T06:13:08.606Z,19.16
2022-09-06T06:15:36.172Z,19.12
2022-09-06T06:18:03.016Z,19.18
2022-09-06T06:20:30.137Z,19.30
2022-09-06T06:22:57.360Z,19.39
2022-09-06T06:25:26.245Z,19.45
2022-09-06T06:27:53.199Z,19.51
2022-09-06T06:30:20.652Z,19.54
2022-09-06T06:32:47.444Z,19.55
2022-09-06T06:35:14.477Z,19.64
2022-09-06T06:37:42.417Z,19.69
2022-09-06T06:40:09.962Z,19.69
2022-09-06T06:42:36.869Z,19.65
2022-09-06T06:45:04.353Z,19.68
2022-09-06T06:47:31.404Z,19.80
2022-09-06T06:49:58.281Z,19.84
2022-09-06T06:52:25.687Z,19.96
2022-09-06T06:54:52.567Z,19.99
2022-09-06T06:57:19.394Z,20.07
2022-09-06T06:59:46.482Z,20.15
2022-09-06T07:02:15.864Z,20.17
2022-09-06T07:04:43.304Z,20.19
2022-09-06T07:12:44.749Z,20.31
2022-09-06T07:15:11.661Z,20.38
2022-09-06T07:17:38.645Z,20.49
2022-09-06T07:20:14.293Z,20.55
2022-09-06T07:22:42.763Z,20.63
2022-09-06T07:25:14.389Z,20.68
2022-09-06T07:27:47.534Z,20.71
2022-09-06T07:30:15.723Z,20.74
2022-09-06T07:32:42.708Z,20.81
2022-09-06T07:35:09.779Z,20.90
2022-09-06T07:37:36.878Z,20.94
2022-09-06T07:40:04.834Z,20.98
2022-09-06T07:42:36.174Z,21.06
2022-09-06T07:45:05.439Z,21.11
2022-09-06T07:53:14.994Z,21.19
2022-09-06T07:55:43.142Z,21.20
2022-09-06T07:58:09.943Z,21.21
2022-09-06T08:00:38.468Z,21.22
2022-09-06T08:03:05.606Z,21.29
2022-09-06T08:11:07.677Z,21.35
2022-09-06T08:13:36.433Z,21.38
2022-09-06T08:16:10.355Z,21.43
2022-09-06T08:18:38.370Z,21.38
2022-09-06T08:21:14.233Z,21.47
2022-09-06T08:23:47.649Z,21.55
2022-09-06T08:26:17.118Z,21.60
2022-09-06T08:28:44.718Z,21.55
2022-09-06T08:31:17.247Z,21.54
2022-09-06T08:33:44.627Z,21.55
2022-09-06T08:36:11.934Z,21.56
2022-09-06T08:38:38.748Z,21.66
2022-09-06T08:41:14.339Z,21.68
2022-09-06T08:47:06.553Z,21.80
2022-09-06T08:50:06.588Z,21.82
2022-09-06T08:53:16.619Z,21.88
2022-09-06T08:55:50.277Z,21.87
2022-09-06T08:58:26.661Z,21.91
2022-09-06T09:01:08.162Z,21.91
2022-09-06T09:03:42.582Z,21.91
2022-09-06T09:06:10.579Z,21.94
2022-09-06T09:09:06.422Z,21.93
2022-09-06T09:11:36.162Z,21.95
2022-09-06T09:14:29.222Z,21.99
2022-09-06T09:17:12.241Z,22.05
2022-09-06T09:19:42.159Z,22.10
2022-09-06T09:22:10.689Z,22.13
2022-09-06T09:24:37.543Z,22.18
2022-09-06T09:27:11.257Z,22.22
2022-09-06T09:32:49.537Z,22.28
2022-09-06T09:35:35.177Z,22.34
2022-09-06T09:38:20.941Z,22.41
2022-09-06T09:40:58.684Z,22.46
2022-09-06T09:43:32.246Z,22.63
2022-09-06T09:46:24.838Z,22.74
2022-09-06T09:49:14.629Z,22.79
2022-09-06T09:51:46.712Z,22.81
2022-09-06T09:54:31.702Z,22.78
2022-09-06T09:56:59.361Z,22.82
2022-09-06T09:59:38.143Z,22.85
2022-09-06T10:02:39.398Z,22.87
2022-09-06T10:05:13.127Z,22.84
2022-09-06T10:07:58.714Z,22.86
2022-09-06T10:10:30.666Z,22.88
2022-09-06T10:13:21.444Z,22.96
2022-09-06T10:15:52.152Z,23.00
2022-09-06T10:18:43.823Z,23.02
2022-09-06T10:21:19.800Z,23.09
2022-09-06T10:24:30.177Z,23.12
2022-09-06T10:27:04.338Z,23.13
2022-09-06T10:29:56.180Z,23.16
2022-09-06T10:32:33.583Z,23.18
2022-09-06T10:35:30.946Z,23.20
2022-09-06T10:38:38.649Z,23.21
2022-09-06T10:41:25.754Z,23.25
2022-09-06T10:44:54.714Z,23.25
2022-09-06T10:47:38.334Z,23.29
2022-09-06T10:50:07.072Z,23.35
2022-09-06T10:52:43.727Z,23.46
2022-09-06T10:55:16.633Z,23.56
2022-09-06T11:00:48.597Z,23.69
2022-09-06T11:06:28.718Z,23.82
2022-09-06T11:09:21.074Z,23.83
2022-09-06T11:11:56.692Z,23.87
2022-09-06T11:14:28.897Z,23.90
2022-09-06T11:17:18.915Z,23.99
2022-09-06T11:20:07.954Z,24.05
2022-09-06T11:23:20.747Z,24.12
2022-09-06T11:26:27.777Z,24.19
2022-09-06T11:29:02.978Z,24.28
2022-09-06T11:34:27.476Z,24.36
2022-09-06T11:37:08.593Z,24.42
2022-09-06T11:43:01.129Z,24.48
2022-09-06T11:45:53.050Z,24.51
2022-09-06T11:48:48.696Z,24.56
2022-09-06T11:51:36.789Z,24.56
2022-09-06T11:54:45.020Z,24.59
2022-09-06T11:57:22.932Z,24.62
2022-09-06T12:00:01.028Z,24.67
2022-09-06T12:02:37.815Z,24.71
2022-09-06T12:05:07.418Z,24.75
2022-09-06T12:07:37.729Z,24.75
2022-09-06T12:10:29.527Z,24.78
2022-09-06T12:12:57.940Z,24.81
2022-09-06T12:15:43.376Z,24.79
2022-09-06T12:18:48.931Z,24.85
2022-09-06T12:21:47.743Z,24.89
2022-09-06T12:24:36.520Z,24.94
2022-09-06T12:27:18.622Z,24.97
2022-09-06T12:30:01.005Z,24.98
2022-09-06T12:32:44.012Z,25.00
2022-09-06T12:38:25.962Z,25.08
2022-09-06T12:40:58.429Z,25.09
2022-09-06T12:43:27.072Z,25.13
2022-09-06T12:45:54.236Z,25.13
2022-09-06T12:48:41.179Z,25.13
2022-09-06T12:51:19.532Z,25.16
2022-09-06T12:53:54.959Z,25.17
2022-09-06T12:56:26.792Z,25.21
2022-09-06T12:59:09.658Z,25.25
2022-09-06T13:01:37.935Z,25.28
2022-09-06T13:04:18.664Z,25.34
2022-09-06T13:06:48.221Z,25.32
2022-09-06T13:09:20.891Z,25.35
2022-09-06T13:11:52.481Z,25.42
2022-09-06T13:14:28.240Z,25.45
2022-09-06T13:16:57.231Z,25.44
2022-09-06T13:19:38.049Z,25.46
2022-09-06T13:22:11.228Z,25.47
2022-09-06T13:24:49.072Z,25.50
2022-09-06T13:27:31.276Z,25.54
2022-09-06T13:30:10.460Z,25.57
2022-09-06T13:32:47.786Z,25.65
2022-09-06T13:35:25.799Z,25.67
2022-09-06T13:37:52.862Z,25.70
2022-09-06T13:41:09.823Z,25.71
2022-09-06T13:43:45.157Z,25.74
2022-09-06T13:46:12.263Z,25.72
2022-09-06T13:48:39.862Z,25.69
2022-09-06T13:51:09.884Z,25.64
2022-09-06T13:53:37.111Z,25.59
2022-09-06T13:56:05.140Z,25.54
2022-09-06T13:58:32.013Z,25.57
2022-09-06T14:00:59.251Z,25.58
2022-09-06T14:03:32.895Z,25.61
2022-09-06T14:06:00.906Z,25.58
2022-09-06T14:08:43.656Z,25.57
2022-09-06T14:11:19.518Z,25.57
2022-09-06T14:13:47.901Z,25.56
2022-09-06T14:16:14.845Z,25.56
2022-09-06T14:18:41.880Z,25.59
2022-09-06T14:21:08.982Z,25.56
2022-09-06T14:23:35.881Z,25.59
2022-09-06T14:26:04.871Z,25.59
2022-09-06T14:28:34.047Z,25.59
2022-09-06T14:31:32.685Z,25.57
2022-09-06T14:34:02.521Z,25.56
2022-09-06T14:36:31.987Z,25.57
2022-09-06T14:39:01.073Z,25.56
2022-09-06T14:41:29.340Z,25.54
2022-09-06T14:43:58.480Z,25.56
2022-09-06T14:46:28.308Z,25.57
2022-09-06T14:49:02.777Z,25.58
2022-09-06T14:51:31.163Z,25.56
2022-09-06T14:54:12.967Z,25.53
2022-09-06T14:56:41.902Z,25.52
2022-09-06T14:59:09.285Z,25.51
2022-09-06T15:01:38.770Z,25.49
2022-09-06T15:04:09.909Z,25.45
2022-09-06T15:06:40.728Z,25.46
2022-09-06T15:09:11.190Z,25.44
2022-09-06T15:11:51.759Z,25.42
2022-09-06T15:14:23.315Z,25.41
2022-09-06T15:16:55.944Z,25.40
2022-09-06T15:19:26.822Z,25.37
2022-09-06T15:21:57.317Z,25.35
2022-09-06T15:24:25.292Z,25.33
2022-09-06T15:26:52.530Z,25.32
2022-09-06T15:29:20.412Z,25.32
2022-09-06T15:31:52.707Z,25.27
2022-09-06T15:34:26.007Z,25.18
2022-09-06T15:36:54.516Z,25.06
2022-09-06T15:39:21.488Z,24.92
2022-09-06T15:41:51.625Z,24.72
2022-09-06T15:44:21.646Z,24.48
2022-09-06T15:46:57.694Z,24.25
2022-09-06T15:49:34.238Z,24.07
2022-09-06T15:52:03.508Z,23.93
2022-09-06T15:54:48.991Z,23.82
2022-09-06T15:57:17.407Z,23.75
2022-09-06T15:59:45.056Z,23.69
2022-09-06T16:02:12.974Z,23.68
2022-09-06T16:04:40.081Z,23.66
2022-09-06T16:07:07.495Z,23.67
2022-09-06T16:09:34.701Z,23.68
2022-09-06T16:12:01.652Z,23.68
2022-09-06T16:14:29.002Z,23.68
2022-09-06T16:16:57.401Z,23.70
2022-09-06T16:19:26.075Z,23.74
2022-09-06T16:21:53.661Z,23.76
2022-09-06T16:24:21.467Z,23.86
2022-09-06T16:26:49.695Z,23.99
2022-09-06T16:29:19.217Z,24.07
2022-09-06T16:31:47.132Z,24.29
2022-09-06T16:34:15.173Z,24.32
2022-09-06T16:36:42.570Z,24.28
2022-09-06T16:39:11.100Z,24.27
2022-09-06T16:41:45.815Z,24.22
2022-09-06T16:44:18.113Z,24.23
2022-09-06T16:46:50.334Z,24.20
2022-09-06T16:49:19.319Z,24.19
2022-09-06T16:51:48.614Z,24.17
2022-09-06T16:54:19.032Z,24.15
2022-09-06T16:56:46.283Z,24.09
2022-09-06T16:59:17.556Z,24.03
2022-09-06T17:01:46.185Z,23.99
2022-09-06T17:04:14.596Z,23.97
2022-09-06T17:06:45.610Z,23.92
2022-09-06T17:09:20.240Z,23.85
2022-09-06T17:11:49.930Z,23.82
2022-09-06T17:14:19.027Z,23.80
2022-09-06T17:17:05.064Z,23.76
2022-09-06T17:19:41.618Z,23.74
2022-09-06T17:22:10.837Z,23.72
2022-09-06T17:24:39.231Z,23.65
2022-09-06T17:27:07.382Z,23.60
2022-09-06T17:29:34.870Z,23.56
2022-09-06T17:32:03.951Z,23.54
2022-09-06T17:34:31.276Z,23.53
2022-09-06T17:36:58.255Z,23.55
2022-09-06T17:39:25.733Z,23.53
2022-09-06T17:41:54.393Z,23.50
2022-09-06T17:44:26.179Z,23.45
2022-09-06T17:47:11.893Z,23.42
2022-09-06T17:49:41.197Z,23.41
2022-09-06T17:52:08.399Z,23.39
2022-09-06T17:54:36.271Z,23.37
2022-09-06T17:57:03.891Z,23.34
2022-09-06T17:59:35.440Z,23.30
2022-09-06T18:02:04.868Z,23.25
2022-09-06T18:04:32.649Z,23.22
2022-09-06T18:07:01.773Z,23.18
2022-09-06T18:09:28.929Z,23.14
2022-09-06T18:11:57.193Z,23.12
2022-09-06T18:14:25.564Z,23.10
2022-09-06T18:16:53.017Z,23.10
2022-09-06T18:19:22.281Z,23.07
2022-09-06T18:21:54.393Z,23.07
2022-09-06T18:24:25.272Z,23.08
2022-09-06T18:26:52.609Z,23.06
2022-09-06T18:29:20.921Z,23.07
2022-09-06T18:31:48.616Z,23.08
2022-09-06T18:34:19.976Z,23.10
2022-09-06T18:36:48.719Z,23.10
2022-09-06T18:39:17.686Z,23.10
2022-09-06T18:42:00.629Z,23.12
2022-09-06T18:44:33.781Z,23.09
2022-09-06T18:47:06.293Z,23.07
2022-09-06T18:49:41.802Z,23.04
2022-09-06T18:52:13.783Z,23.01
2022-09-06T18:54:43.786Z,22.99
2022-09-06T18:57:13.225Z,22.98
2022-09-06T18:59:49.434Z,22.96
2022-09-06T19:02:16.811Z,22.94
2022-09-06T19:04:54.133Z,22.90
2022-09-06T19:07:29.703Z,22.85
2022-09-06T19:09:58.588Z,22.82
2022-09-06T19:12:27.762Z,22.80
2022-09-06T19:14:55.114Z,22.78
2022-09-06T19:17:23.251Z,22.76
2022-09-06T19:19:50.434Z,22.74
2022-09-06T19:22:17.935Z,22.71
2022-09-06T19:24:53.424Z,22.68
2022-09-06T19:27:20.595Z,22.65
2022-09-06T19:29:48.179Z,22.62
2022-09-06T19:32:19.338Z,22.59
2022-09-06T19:34:47.723Z,22.57
2022-09-06T19:37:17.383Z,22.57
2022-09-06T19:39:45.576Z,22.56
2022-09-06T19:42:13.008Z,22.62
2022-09-06T19:44:40.264Z,22.63
2022-09-06T19:47:08.142Z,22.57
2022-09-06T19:49:35.459Z,22.59
2022-09-06T19:52:09.649Z,22.54
2022-09-06T19:54:37.971Z,22.53
2022-09-06T19:57:06.263Z,22.49
2022-09-06T19:59:36.395Z,22.47
2022-09-06T20:02:04.995Z,22.46
2022-09-06T20:04:32.511Z,22.43
2022-09-06T20:06:59.418Z,22.40
2022-09-06T20:09:26.767Z,22.36
2022-09-06T20:11:53.714Z,22.31
2022-09-06T20:14:20.848Z,22.27
2022-09-06T20:16:48.005Z,22.23
2022-09-06T20:19:16.439Z,22.18
2022-09-06T20:21:43.401Z,22.19
2022-09-06T20:24:12.536Z,22.18
2022-09-06T20:26:40.358Z,22.16
2022-09-06T20:29:08.197Z,22.14
2022-09-06T20:31:37.312Z,22.17
2022-09-06T20:34:06.604Z,22.19
2022-09-06T20:36:34.134Z,22.20
2022-09-06T20:39:02.229Z,22.18
2022-09-06T20:41:29.469Z,22.18
2022-09-06T20:43:59.044Z,22.19
2022-09-06T20:46:32.821Z,22.19
2022-09-06T20:49:04.478Z,22.18
2022-09-06T20:51:34.763Z,22.18
2022-09-06T20:54:04.325Z,22.17
2022-09-06T20:56:35.015Z,22.16
2022-09-06T20:59:05.763Z,22.17
2022-09-06T21:01:37.217Z,22.13
2022-09-06T21:04:07.674Z,22.11
2022-09-06T21:06:36.875Z,22.05
2022-09-06T21:09:09.640Z,22.07
2022-09-06T21:11:37.512Z,22.05
2022-09-06T21:14:05.619Z,22.03
2022-09-06T21:16:33.267Z,22.01
2022-09-06T21:19:05.274Z,21.97
2022-09-06T21:21:34.835Z,21.95
2022-09-06T21:24:05.137Z,21.89
2022-09-06T21:26:32.308Z,21.84
2022-09-06T21:28:59.247Z,21.79
2022-09-06T21:31:33.720Z,21.74
2022-09-06T21:34:07.460Z,21.71
2022-09-06T21:36:37.685Z,21.69
2022-09-06T21:39:10.151Z,21.69
2022-09-06T21:41:39.979Z,21.67
2022-09-06T21:44:08.552Z,21.64
2022-09-06T21:46:39.182Z,21.58
2022-09-06T21:49:10.997Z,21.55
2022-09-06T21:51:38.742Z,21.54
2022-09-06T21:54:07.073Z,21.56
2022-09-06T21:56:38.141Z,21.55
2022-09-06T21:59:06.221Z,21.51
2022-09-06T22:01:36.387Z,21.48
2022-09-06T22:04:04.899Z,21.45
2022-09-06T22:06:34.454Z,21.43
2022-09-06T22:09:07.929Z,21.39
2022-09-06T22:11:35.244Z,21.38
2022-09-06T22:14:06.488Z,21.36
2022-09-06T22:16:36.164Z,21.36
2022-09-06T22:19:09.191Z,21.32
2022-09-06T22:21:38.644Z,21.28
2022-09-06T22:24:09.842Z,21.20
2022-09-06T22:26:38.723Z,21.06
2022-09-06T22:29:09.106Z,21.05
2022-09-06T22:31:37.046Z,21.00
2022-09-06T22:34:04.903Z,20.99
2022-09-06T22:36:32.870Z,20.96
2022-09-06T22:38:59.932Z,20.95
2022-09-06T22:41:31.745Z,20.94
2022-09-06T22:44:03.487Z,20.95
2022-09-06T22:46:31.571Z,20.92
2022-09-06T22:48:59.184Z,20.90
2022-09-06T22:51:26.214Z,20.82
2022-09-06T22:53:53.314Z,20.78
2022-09-06T22:56:20.366Z,20.76
2022-09-06T22:58:47.418Z,20.76
2022-09-06T23:01:16.487Z,20.77
2022-09-06T23:03:43.933Z,20.79
2022-09-06T23:06:11.390Z,20.83
2022-09-06T23:08:40.701Z,20.84
2022-09-06T23:11:12.363Z,20.85
2022-09-06T23:13:44.091Z,20.85
2022-09-06T23:16:18.489Z,20.83
2022-09-06T23:18:46.524Z,20.79
2022-09-06T23:21:18.119Z,20.78
2022-09-06T23:23:47.185Z,20.73
2022-09-06T23:26:22.361Z,20.71
2022-09-06T23:28:56.786Z,20.71
2022-09-06T23:31:27.963Z,20.67
2022-09-06T23:34:00.971Z,20.59
2022-09-06T23:36:28.742Z,20.48
2022-09-06T23:38:56.917Z,20.45
2022-09-06T23:41:24.868Z,20.48
2022-09-06T23:43:51.909Z,20.47
2022-09-06T23:46:18.929Z,20.45
2022-09-06T23:48:46.095Z,20.44
2022-09-06T23:51:13.932Z,20.39
2022-09-06T23:53:40.993Z,20.33
2022-09-06T23:56:08.239Z,20.28
2022-09-06T23:58:36.687Z,20.28
